Time;durP1;ratioP1;P1;durP2;ratioP2;P2;SDS_P1;SDS_P2;PMS_P1;PMS_P2;Temp;Humidity;BMP_temperature;BMP_pressure;BME280_temperature;BME280_humidity;BME280_pressure;Samples;Min_cycle;Max_cycle;Signal;HPM_P1;HPM_P2
2023/08/25 00:01:39;;;;;;;11.93;6.42;;;;;;;21.43;86.11;100393.88;5107993;56;1140806;-65
2023/08/25 00:06:45;;;;;;;7.65;5.15;;;;;;;21.45;85.70;100379.72;5035617;56;1140724;-65
2023/08/25 00:11:50;;;;;;;11.57;4.42;;;;;;;21.43;85.04;100383.63;5073673;56;1138831;-66
2023/08/25 00:16:56;;;;;;;11.02;4.20;;;;;;;21.47;85.18;100392.98;5074247;55;1140831;-66
2023/08/25 00:22:02;;;;;;;5.72;3.83;;;;;;;21.47;83.74;100388.44;5093419;56;1140809;-66
2023/08/25 00:27:08;;;;;;;15.28;5.10;;;;;;;21.44;82.98;100391.51;5073672;56;1139211;-66
2023/08/25 00:32:14;;;;;;;14.60;5.40;;;;;;;21.38;82.83;100381.02;5073778;56;1140849;-65
2023/08/25 00:37:20;;;;;;;8.93;4.83;;;;;;;21.39;82.77;100375.09;5092699;56;1140768;-66
2023/08/25 00:42:26;;;;;;;6.20;3.87;;;;;;;21.38;82.74;100365.39;5073456;56;1138470;-65
2023/08/25 00:47:32;;;;;;;8.13;4.95;;;;;;;21.37;82.75;100363.22;4991557;57;1138450;-65
2023/08/25 00:52:40;;;;;;;6.85;3.67;;;;;;;21.35;82.61;100348.28;5071656;56;1138696;-66
2023/08/25 00:57:46;;;;;;;8.00;4.15;;;;;;;21.28;82.44;100325.34;5093060;56;1138977;-66
2023/08/25 01:02:53;;;;;;;11.33;4.65;;;;;;;21.20;82.53;100322.80;5072300;56;1138776;-66
2023/08/25 01:07:58;;;;;;;14.98;4.33;;;;;;;21.16;82.85;100317.95;5081248;56;1140765;-66
2023/08/25 01:13:16;;;;;;;6.60;3.92;;;;;;;21.15;82.94;100322.50;5030452;57;1140767;-67
2023/08/25 01:18:34;;;;;;;5.67;4.20;;;;;;;21.16;82.99;100334.09;4949888;57;1138825;-65
2023/08/25 01:23:47;;;;;;;5.84;3.50;;;;;;;21.17;83.15;100339.28;5031114;57;1138784;-66
2023/08/25 01:28:53;;;;;;;6.03;3.47;;;;;;;21.22;83.17;100353.03;5033026;56;1138949;-65
2023/08/25 01:34:01;;;;;;;8.08;3.77;;;;;;;21.26;83.37;100346.22;4969874;57;1138715;-66
2023/08/25 01:39:15;;;;;;;6.40;3.58;;;;;;;21.19;83.40;100332.37;5031282;57;1138816;-64
2023/08/25 01:44:23;;;;;;;11.83;4.42;;;;;;;21.15;83.61;100315.78;5064563;56;1138740;-66
2023/08/25 01:49:30;;;;;;;8.98;3.85;;;;;;;21.10;83.83;100303.41;5105805;56;1140923;-65
2023/08/25 01:54:36;;;;;;;9.13;4.22;;;;;;;21.06;84.11;100298.95;5031778;55;1138669;-65
2023/08/25 01:59:42;;;;;;;3.50;3.20;;;;;;;21.01;84.14;100297.85;5033073;56;1138587;-66
2023/08/25 02:04:48;;;;;;;12.68;3.15;;;;;;;21.03;84.57;100307.91;5051048;57;1138529;-66
2023/08/25 02:09:55;;;;;;;8.73;3.95;;;;;;;21.06;84.31;100290.05;5030903;57;1140946;-65
2023/08/25 02:15:01;;;;;;;6.08;3.83;;;;;;;21.09;83.98;100284.27;5031200;57;1138847;-65
2023/08/25 02:20:08;;;;;;;4.67;3.67;;;;;;;21.16;84.25;100287.02;5051508;56;1138854;-65
2023/08/25 02:25:13;;;;;;;8.00;3.67;;;;;;;21.18;83.99;100279.09;5091472;57;1138914;-66
2023/08/25 02:30:19;;;;;;;8.13;3.90;;;;;;;21.15;83.78;100273.26;5090676;57;1138775;-66
2023/08/25 02:35:25;;;;;;;15.32;5.62;;;;;;;21.04;83.76;100261.17;5110891;57;1138762;-66
2023/08/25 02:40:30;;;;;;;8.65;4.30;;;;;;;20.97;84.12;100254.89;5085315;56;1140964;-65
2023/08/25 02:45:38;;;;;;;8.90;4.45;;;;;;;20.92;84.39;100253.31;5064131;56;1138981;-65
2023/08/25 02:50:44;;;;;;;10.78;3.87;;;;;;;20.90;84.64;100250.81;5060664;56;1138850;-66
2023/08/25 02:55:49;;;;;;;9.95;4.62;;;;;;;20.93;84.83;100245.02;5001709;56;1140701;-65
2023/08/25 03:00:55;;;;;;;10.60;5.90;;;;;;;20.95;84.96;100246.17;4971391;57;1138644;-66
2023/08/25 03:06:01;;;;;;;10.95;4.08;;;;;;;20.91;85.26;100251.13;5055001;56;1140978;-65
2023/08/25 03:11:07;;;;;;;13.30;6.00;;;;;;;20.91;85.95;100257.85;5023295;56;1140878;-67
2023/08/25 03:16:13;;;;;;;10.82;5.40;;;;;;;20.95;86.61;100240.80;5163888;55;1141003;-66
2023/08/25 03:21:19;;;;;;;9.20;5.27;;;;;;;20.95;87.51;100235.42;5240331;55;1140906;-64
2023/08/25 03:26:25;;;;;;;13.08;5.75;;;;;;;20.92;87.76;100238.01;5256196;55;1138633;-66
2023/08/25 03:31:31;;;;;;;7.92;5.42;;;;;;;20.88;88.30;100231.86;5202480;55;1140651;-66
2023/08/25 03:36:36;;;;;;;9.25;5.60;;;;;;;20.76;89.33;100222.14;5187647;55;1138878;-66
2023/08/25 03:41:42;;;;;;;11.93;5.40;;;;;;;20.65;90.51;100213.22;5188442;55;1139044;-65
2023/08/25 03:46:48;;;;;;;14.53;6.00;;;;;;;20.51;91.28;100207.39;5254631;55;1141048;-66
2023/08/25 03:51:54;;;;;;;10.13;6.47;;;;;;;20.41;92.43;100213.09;5183159;54;1141007;-66
2023/08/25 03:57:00;;;;;;;12.80;6.08;;;;;;;20.34;93.23;100208.94;5214964;55;1140730;-64
2023/08/25 04:02:07;;;;;;;9.20;6.47;;;;;;;20.29;93.78;100209.20;5268677;55;1140748;-65
2023/08/25 04:07:13;;;;;;;10.08;5.92;;;;;;;20.23;95.42;100191.98;5152541;55;1138649;-65
2023/08/25 04:12:18;;;;;;;11.40;6.43;;;;;;;20.17;96.17;100176.62;5147287;55;1140948;-65
2023/08/25 04:17:24;;;;;;;8.58;6.62;;;;;;;20.13;96.53;100180.73;5277429;55;1140757;-66
2023/08/25 04:22:30;;;;;;;15.05;7.35;;;;;;;20.15;97.66;100189.94;5246320;55;1139100;-64
2023/08/25 04:27:37;;;;;;;9.03;6.20;;;;;;;20.10;98.35;100174.39;5246739;55;1141152;-65
2023/08/25 04:32:43;;;;;;;16.93;7.17;;;;;;;20.03;98.80;100160.88;5250718;55;1138994;-66
2023/08/25 04:37:50;;;;;;;12.40;7.60;;;;;;;20.05;100.00;100156.66;5206761;55;1140961;-66
2023/08/25 04:42:56;;;;;;;8.20;6.12;;;;;;;20.00;100.00;100142.48;5246005;55;1143368;-67
2023/08/25 04:48:02;;;;;;;15.75;6.83;;;;;;;19.97;100.00;100132.63;5015412;55;1140923;-65
2023/08/25 04:53:09;;;;;;;7.46;6.06;;;;;;;19.94;100.00;100124.44;5241125;55;1152555;-67
2023/08/25 04:58:14;;;;;;;9.40;5.97;;;;;;;19.91;100.00;100127.49;5276414;54;1140945;-66
2023/08/25 05:03:20;;;;;;;10.83;7.43;;;;;;;19.91;100.00;100136.05;5254838;54;1140976;-65
2023/08/25 05:08:26;;;;;;;10.70;6.55;;;;;;;19.87;100.00;100126.70;5278308;54;1142882;-66
2023/08/25 05:13:32;;;;;;;11.22;7.60;;;;;;;19.89;100.00;100123.33;5249169;54;1142668;-66
2023/08/25 05:18:38;;;;;;;12.10;6.60;;;;;;;19.87;100.00;100110.09;5263821;54;1142753;-65
2023/08/25 05:23:47;;;;;;;15.23;6.22;;;;;;;19.88;100.00;100111.76;5253860;54;1142982;-64
2023/08/25 05:28:53;;;;;;;11.48;6.25;;;;;;;19.90;100.00;100113.75;5238693;54;1142991;-65
2023/08/25 05:33:59;;;;;;;7.90;5.85;;;;;;;19.99;100.00;100104.58;5237135;54;1142591;-66
2023/08/25 05:39:06;;;;;;;9.15;6.37;;;;;;;20.05;100.00;100103.47;5275248;55;1141237;-66
2023/08/25 05:44:12;;;;;;;12.73;7.15;;;;;;;20.08;100.00;100087.83;5286625;54;1140945;-65
2023/08/25 05:49:18;;;;;;;18.67;10.05;;;;;;;20.12;100.00;100079.72;5274720;55;1143094;-67
2023/08/25 05:54:24;;;;;;;9.10;6.33;;;;;;;20.15;100.00;100063.23;5262170;54;1145344;-66
2023/08/25 05:59:35;;;;;;;9.60;6.92;;;;;;;20.22;100.00;100051.19;5255333;54;1140740;-65
2023/08/25 06:04:40;;;;;;;11.85;9.43;;;;;;;20.28;100.00;100044.55;5265439;54;1141045;-66
2023/08/25 06:09:46;;;;;;;17.40;12.23;;;;;;;20.36;100.00;100038.23;5278746;54;1142917;-67
2023/08/25 06:14:52;;;;;;;19.15;11.43;;;;;;;20.42;100.00;100043.34;5266168;54;1145021;-67
2023/08/25 06:19:57;;;;;;;15.23;9.10;;;;;;;20.50;100.00;100046.70;5185528;55;1145008;-67
2023/08/25 06:25:03;;;;;;;12.85;8.65;;;;;;;20.53;100.00;100037.44;5203950;54;1142945;-66
2023/08/25 06:30:10;;;;;;;14.20;7.33;;;;;;;20.57;100.00;100037.37;5206907;55;1143424;-66
2023/08/25 06:35:16;;;;;;;10.40;7.25;;;;;;;20.60;100.00;100027.06;5227839;55;1143205;-65
2023/08/25 06:40:22;;;;;;;16.80;9.90;;;;;;;20.69;100.00;100021.85;5258862;55;1143021;-65
2023/08/25 06:45:28;;;;;;;10.60;7.37;;;;;;;20.85;100.00;100026.09;5085099;56;1143047;-65
2023/08/25 06:50:33;;;;;;;10.58;6.55;;;;;;;20.96;100.00;100022.00;4993009;56;1142890;-66
2023/08/25 06:55:39;;;;;;;9.33;5.65;;;;;;;21.16;100.00;100020.26;5034953;56;1142935;-65
2023/08/25 07:00:44;;;;;;;11.53;6.50;;;;;;;21.38;100.00;100018.33;5026115;56;1140910;-67
2023/08/25 07:05:54;;;;;;;9.55;6.33;;;;;;;21.51;100.00;100022.92;5032213;57;1142726;-67
2023/08/25 07:11:00;;;;;;;8.98;6.10;;;;;;;21.47;100.00;100030.56;4989982;57;1140730;-66
2023/08/25 07:16:05;;;;;;;9.75;5.70;;;;;;;21.41;100.00;100025.97;4989634;56;1140618;-65
2023/08/25 07:21:12;;;;;;;15.10;6.05;;;;;;;21.50;100.00;100025.30;5016969;56;1140837;-67
2023/08/25 07:26:18;;;;;;;7.90;5.25;;;;;;;21.64;100.00;100024.31;5034859;56;1143026;-66
2023/08/25 07:31:23;;;;;;;8.95;6.58;;;;;;;21.69;100.00;100020.50;5032728;56;1140802;-67
2023/08/25 07:36:29;;;;;;;11.22;6.25;;;;;;;21.73;100.00;100023.08;5051791;56;1140694;-66
2023/08/25 07:41:35;;;;;;;11.33;5.65;;;;;;;21.95;100.00;100016.51;5043726;56;1143057;-66
2023/08/25 07:46:41;;;;;;;10.28;6.00;;;;;;;22.31;100.00;100013.44;5062143;56;1143037;-67
2023/08/25 07:51:47;;;;;;;16.37;6.10;;;;;;;22.64;100.00;100013.94;5054033;56;1143223;-65
2023/08/25 07:56:53;;;;;;;11.50;5.20;;;;;;;22.97;100.00;100007.99;5047153;56;1142804;-66
2023/08/25 08:01:59;;;;;;;10.63;5.70;;;;;;;23.27;99.78;100006.95;5111088;55;1142946;-67
2023/08/25 08:07:05;;;;;;;8.58;5.83;;;;;;;23.54;97.48;100009.56;5027069;57;1140854;-66
2023/08/25 08:12:10;;;;;;;9.40;5.30;;;;;;;23.79;96.71;100004.55;5051017;56;1138802;-67
2023/08/25 08:17:16;;;;;;;12.23;5.80;;;;;;;24.08;99.73;100007.16;5114368;56;1139060;-67
2023/08/25 08:22:21;;;;;;;9.20;5.58;;;;;;;24.44;97.16;100008.36;5098953;56;1141291;-67
2023/08/25 08:27:27;;;;;;;9.10;5.72;;;;;;;24.68;94.11;99995.33;5057716;56;1138962;-67
2023/08/25 08:32:34;;;;;;;7.37;5.10;;;;;;;24.92;93.42;100003.06;5009031;57;1136763;-64
2023/08/25 08:37:41;;;;;;;7.05;5.37;;;;;;;25.01;90.48;100011.23;5028065;56;1138771;-65
2023/08/25 08:42:48;;;;;;;11.43;6.20;;;;;;;25.22;90.49;100013.99;4980472;57;1139203;-64
2023/08/25 08:47:54;;;;;;;9.23;5.15;;;;;;;25.39;91.15;100011.50;5064844;56;1141108;-65
2023/08/25 08:53:01;;;;;;;8.63;5.12;;;;;;;25.63;90.85;100011.13;5066887;56;1138881;-65
2023/08/25 08:58:07;;;;;;;8.08;5.47;;;;;;;25.87;90.80;100006.08;5060329;56;1138759;-65
2023/08/25 09:03:19;;;;;;;7.08;5.00;;;;;;;26.07;86.05;100001.19;5100582;56;1138969;-65
2023/08/25 09:08:25;;;;;;;5.50;5.00;;;;;;;26.21;86.29;99992.31;5009569;56;1139463;-65
2023/08/25 09:13:34;;;;;;;21.75;5.97;;;;;;;26.41;83.77;99987.95;4962477;56;1136665;-65
2023/08/25 09:18:40;;;;;;;9.33;4.50;;;;;;;26.56;85.11;99993.20;5022605;57;1138799;-65
2023/08/25 09:24:00;;;;;;;12.50;5.05;;;;;;;26.71;83.25;99995.44;5085968;56;1136875;-65
2023/08/25 09:29:06;;;;;;;6.22;4.55;;;;;;;26.98;83.45;99999.85;5079616;56;1138430;-64
2023/08/25 09:34:14;;;;;;;6.62;4.58;;;;;;;27.19;82.74;99998.40;5011620;56;1136718;-66
2023/08/25 09:39:20;;;;;;;9.93;5.10;;;;;;;27.38;77.76;100003.10;5056754;56;1136608;-66
2023/08/25 09:44:27;;;;;;;7.20;5.07;;;;;;;27.43;79.04;100004.04;5054938;56;1139123;-67
2023/08/25 09:49:43;;;;;;;6.37;4.37;;;;;;;27.62;77.85;100006.07;5092222;56;1138669;-67
2023/08/25 09:54:49;;;;;;;5.30;4.80;;;;;;;27.74;75.79;100020.42;5074791;56;1139083;-66
2023/08/25 09:59:56;;;;;;;5.80;4.22;;;;;;;27.95;75.95;100007.50;5085041;56;1139062;-66
2023/08/25 10:05:04;;;;;;;11.05;4.50;;;;;;;28.22;75.26;99993.30;5022739;56;1138876;-67
2023/08/25 10:10:10;;;;;;;5.72;4.35;;;;;;;28.42;74.87;100005.02;5024851;55;1138747;-66
2023/08/25 10:15:17;;;;;;;9.83;4.15;;;;;;;28.61;71.91;99992.80;5197965;54;1138739;-67
2023/08/25 10:20:23;;;;;;;11.48;4.40;;;;;;;28.81;72.20;99992.30;5297241;54;1136683;-65
2023/08/25 10:25:33;;;;;;;6.17;4.20;;;;;;;29.02;72.31;99981.45;5250636;54;1138951;-66
2023/08/25 10:30:39;;;;;;;7.47;4.25;;;;;;;29.18;70.88;99974.26;5201073;54;1136650;-67
2023/08/25 10:35:48;;;;;;;8.48;3.65;;;;;;;29.35;69.61;99971.46;5280148;55;1136924;-66
2023/08/25 10:40:56;;;;;;;4.58;3.85;;;;;;;29.41;68.27;99983.28;5240625;55;1136884;-66
2023/08/25 10:46:09;;;;;;;32.42;4.47;;;;;;;29.41;68.24;99997.73;5232624;54;1136827;-67
2023/08/25 10:51:21;;;;;;;10.40;4.20;;;;;;;29.49;66.43;100000.52;5242886;54;1138734;-68
2023/08/25 10:56:26;;;;;;;10.30;3.73;;;;;;;29.51;66.07;100001.09;5120312;55;1140916;-66
2023/08/25 11:01:43;;;;;;;13.48;4.72;;;;;;;29.67;67.22;99990.10;5105393;55;1140697;-67
2023/08/25 11:06:51;;;;;;;8.95;4.45;;;;;;;29.77;67.21;99981.77;5074682;55;1138853;-67
2023/08/25 11:12:03;;;;;;;14.23;4.60;;;;;;;29.98;67.69;99991.79;5155027;56;1136831;-66
2023/08/25 11:17:10;;;;;;;8.88;5.37;;;;;;;30.14;65.14;99996.84;5263466;54;1138620;-67
2023/08/25 11:22:17;;;;;;;8.83;4.60;;;;;;;30.19;65.05;99996.89;5284975;54;1136687;-68
2023/08/25 11:27:24;;;;;;;11.38;5.12;;;;;;;30.16;65.06;99994.67;5271660;54;1136894;-66
2023/08/25 11:32:30;;;;;;;5.42;4.17;;;;;;;30.28;66.48;99996.67;5240082;55;1138862;-66
2023/08/25 11:37:36;;;;;;;6.78;4.97;;;;;;;30.48;66.60;99994.66;5239798;55;1136679;-67
2023/08/25 11:42:42;;;;;;;8.92;5.48;;;;;;;30.64;65.41;99997.80;5209787;55;1136940;-66
2023/08/25 11:47:47;;;;;;;9.28;5.45;;;;;;;30.45;65.09;100000.09;5250104;55;1136735;-66
2023/08/25 11:52:54;;;;;;;13.53;5.55;;;;;;;30.53;64.16;100002.89;5182005;54;1138668;-67
2023/08/25 11:57:59;;;;;;;8.78;4.78;;;;;;;30.57;65.68;100006.74;5218370;54;1140991;-67
2023/08/25 12:03:06;;;;;;;9.55;5.50;;;;;;;30.67;64.09;100008.20;5224505;54;1138616;-67
2023/08/25 12:08:12;;;;;;;12.70;6.08;;;;;;;30.70;61.96;100003.58;5221692;54;1138567;-67
2023/08/25 12:13:20;;;;;;;10.03;5.17;;;;;;;30.69;63.23;100002.76;5170775;54;1140915;-67
2023/08/25 12:18:34;;;;;;;15.58;5.80;;;;;;;30.68;63.65;99986.09;5198921;54;1148578;-67
2023/08/25 12:23:43;;;;;;;11.40;5.80;;;;;;;30.71;63.17;99988.81;5184582;54;1138914;-67
2023/08/25 12:28:49;;;;;;;12.25;5.30;;;;;;;30.72;63.06;99979.54;5169027;54;1138769;-67
2023/08/25 12:33:54;;;;;;;8.10;5.37;;;;;;;30.70;64.42;99987.20;5180513;54;1138918;-67
2023/08/25 12:39:00;;;;;;;8.08;4.72;;;;;;;30.86;65.39;99990.27;5160906;54;1136511;-67
2023/08/25 12:44:05;;;;;;;12.45;5.65;;;;;;;30.98;63.58;99992.27;5141325;55;1136655;-68
2023/08/25 12:49:11;;;;;;;14.93;4.30;;;;;;;31.17;64.20;99985.80;5197202;55;1138801;-66
2023/08/25 12:54:18;;;;;;;5.05;4.45;;;;;;;31.26;63.22;99980.11;5255958;54;1138682;-67
2023/08/25 12:59:23;;;;;;;11.70;4.33;;;;;;;31.46;60.07;99987.56;5182644;54;1136618;-67
2023/08/25 13:04:29;;;;;;;5.60;3.83;;;;;;;31.47;61.07;99979.06;5203415;54;1138458;-67
2023/08/25 13:09:35;;;;;;;5.53;4.03;;;;;;;31.49;60.97;99976.06;5184666;54;1136882;-67
2023/08/25 13:14:41;;;;;;;6.58;3.77;;;;;;;31.53;60.18;99981.82;5171072;54;1136757;-67
2023/08/25 13:19:47;;;;;;;9.23;4.73;;;;;;;31.64;58.49;99989.77;5302659;54;1136788;-67
2023/08/25 13:24:52;;;;;;;6.00;4.42;;;;;;;31.59;58.67;99984.31;5276436;54;1136882;-68
2023/08/25 13:29:58;;;;;;;9.65;4.15;;;;;;;31.62;58.51;99989.24;5199690;54;1136833;-68
2023/08/25 13:35:04;;;;;;;8.25;3.35;;;;;;;31.66;56.79;99988.16;5298012;54;1136610;-67
2023/08/25 13:40:11;;;;;;;14.30;4.55;;;;;;;31.56;56.72;99993.05;5319146;54;1136577;-67
2023/08/25 13:45:16;;;;;;;14.40;3.52;;;;;;;31.49;58.05;99992.47;5298240;54;1138720;-67
2023/08/25 13:50:23;;;;;;;10.03;4.53;;;;;;;31.54;58.18;99991.13;5297623;54;1138771;-67
2023/08/25 13:55:29;;;;;;;5.28;3.80;;;;;;;31.44;57.00;99985.64;5283502;54;1139029;-70
2023/08/25 14:00:34;;;;;;;9.70;3.58;;;;;;;31.44;57.00;99985.64;5181336;55;1136757;-67
2023/08/25 14:05:40;;;;;;;4.23;3.70;;;;;;;31.52;57.48;99985.09;5153484;56;1136754;-67
2023/08/25 14:10:46;;;;;;;12.20;4.00;;;;;;;31.66;58.55;99982.15;5252265;54;1136736;-67
2023/08/25 14:15:51;;;;;;;8.83;4.42;;;;;;;31.78;57.50;99980.52;5305143;55;1138942;-67
2023/08/25 14:20:57;;;;;;;15.15;5.87;;;;;;;31.73;57.85;99981.36;5135672;57;1136385;-67
2023/08/25 14:26:03;;;;;;;8.78;5.45;;;;;;;31.62;57.90;99987.05;5063365;57;1138736;-67
2023/08/25 14:31:08;;;;;;;14.33;4.42;;;;;;;31.49;57.26;99985.63;4978330;56;1137160;-67
2023/08/25 14:36:14;;;;;;;15.80;4.92;;;;;;;31.36;57.92;99974.67;4942155;58;1139062;-67
2023/08/25 14:41:19;;;;;;;11.30;5.12;;;;;;;31.23;59.95;99978.45;4849699;58;1138904;-67
2023/08/25 14:46:32;;;;;;;13.32;5.47;;;;;;;31.10;60.30;99979.23;5031531;55;1138881;-67
2023/08/25 14:51:39;;;;;;;11.53;4.65;;;;;;;31.05;60.99;99976.44;5019251;57;1138606;-67
2023/08/25 14:56:44;;;;;;;7.85;4.30;;;;;;;31.02;61.67;99970.67;4921807;56;1138780;-65
2023/08/25 15:01:50;;;;;;;10.50;5.25;;;;;;;31.07;61.28;99978.91;4995941;56;1136873;-65
2023/08/25 15:06:55;;;;;;;6.28;4.67;;;;;;;30.91;61.46;99982.11;4966155;56;1138773;-65
2023/08/25 15:12:01;;;;;;;10.50;5.10;;;;;;;30.80;62.35;99967.31;5137377;55;1137077;-65
2023/08/25 15:17:07;;;;;;;12.37;4.30;;;;;;;30.75;62.37;99968.09;5005425;57;1138584;-67
2023/08/25 15:22:12;;;;;;;9.35;4.35;;;;;;;30.76;62.58;99975.20;4995546;56;1139036;-66
2023/08/25 15:27:18;;;;;;;14.20;6.03;;;;;;;30.74;63.17;99970.55;5068817;56;1136592;-67
2023/08/25 15:32:23;;;;;;;11.10;4.62;;;;;;;30.69;63.78;99959.62;5120587;56;1138840;-67
2023/08/25 15:37:29;;;;;;;16.87;5.65;;;;;;;30.71;63.69;99951.95;5133406;55;1138864;-67
2023/08/25 15:42:35;;;;;;;13.60;5.70;;;;;;;30.69;64.14;99957.70;5188816;55;1138927;-66
2023/08/25 15:47:40;;;;;;;11.57;4.83;;;;;;;30.72;64.79;99953.06;5092325;56;1139137;-67
2023/08/25 15:52:46;;;;;;;8.23;4.50;;;;;;;30.76;64.77;99959.64;5079545;56;1138819;-67
2023/08/25 15:57:51;;;;;;;11.30;4.60;;;;;;;30.74;65.15;99963.72;5096249;56;1136785;-67
2023/08/25 16:02:57;;;;;;;15.78;5.35;;;;;;;30.69;65.76;99967.27;4987597;56;1138926;-67
2023/08/25 16:08:03;;;;;;;9.73;5.42;;;;;;;30.68;66.46;99985.27;5201362;56;1138834;-67
2023/08/25 16:13:08;;;;;;;13.98;4.95;;;;;;;30.57;66.74;99989.00;5187754;56;1136870;-67
2023/08/25 16:18:14;;;;;;;9.48;5.12;;;;;;;30.46;67.23;99988.63;5223350;55;1138836;-67
2023/08/25 16:23:20;;;;;;;6.90;4.95;;;;;;;30.34;67.67;99986.92;5277401;55;1137038;-67
2023/08/25 16:28:26;;;;;;;6.67;4.90;;;;;;;30.26;68.19;99980.56;5221197;55;1136806;-67
2023/08/25 16:33:34;;;;;;;12.67;5.03;;;;;;;30.20;68.75;99972.08;5221436;55;1136736;-67
2023/08/25 16:38:40;;;;;;;9.63;5.20;;;;;;;30.16;69.18;99972.86;5133438;55;1138841;-67
2023/08/25 16:43:46;;;;;;;12.10;5.30;;;;;;;30.11;69.55;99970.08;5251923;54;1136956;-67
2023/08/25 16:48:51;;;;;;;10.98;5.15;;;;;;;30.05;69.45;99964.60;5230330;54;1138909;-67
2023/08/25 16:53:57;;;;;;;10.53;4.97;;;;;;;30.01;69.79;99966.20;5231103;54;1138934;-67
2023/08/25 16:59:02;;;;;;;6.55;4.90;;;;;;;29.91;69.84;99959.81;5224253;54;1138605;-67
2023/08/25 17:04:08;;;;;;;10.20;6.12;;;;;;;29.84;70.19;99957.28;5139152;55;1136694;-67
2023/08/25 17:09:14;;;;;;;10.60;5.03;;;;;;;29.77;70.49;99946.33;5084724;56;1138782;-67
2023/08/25 17:14:21;;;;;;;10.43;5.83;;;;;;;29.76;70.73;99935.95;5131195;56;1258310;-67
2023/08/25 17:19:27;;;;;;;6.65;6.00;;;;;;;29.71;70.94;99940.81;5141766;56;1138749;-67
2023/08/25 17:24:32;;;;;;;11.55;7.28;;;;;;;29.67;71.72;99944.31;5082923;56;1136690;-66
2023/08/25 17:29:38;;;;;;;13.52;8.72;;;;;;;29.63;72.21;99941.84;5045535;56;1138923;-69
2023/08/25 17:34:44;;;;;;;26.40;8.43;;;;;;;29.58;73.13;99948.05;5037362;56;1138779;-67
2023/08/25 17:39:49;;;;;;;20.02;7.37;;;;;;;29.43;73.78;99945.71;5238433;54;1138693;-66
2023/08/25 17:44:57;;;;;;;18.97;6.50;;;;;;;29.21;74.50;99947.88;5275556;55;1139003;-66
2023/08/25 17:50:03;;;;;;;21.02;7.03;;;;;;;29.04;75.35;99953.40;5296435;55;1138867;-67
2023/08/25 17:55:09;;;;;;;12.05;6.55;;;;;;;28.85;76.90;99954.81;5275313;55;1138814;-67
2023/08/25 18:00:15;;;;;;;12.25;6.35;;;;;;;28.66;78.80;99959.69;5276594;55;1138967;-66
2023/08/25 18:05:20;;;;;;;14.98;6.92;;;;;;;28.45;79.71;99960.45;5296535;55;1138718;-66
2023/08/25 18:10:28;;;;;;;14.78;6.55;;;;;;;28.26;80.59;99958.53;5275841;55;1138917;-67
2023/08/25 18:15:34;;;;;;;9.15;5.75;;;;;;;28.11;81.52;99965.06;5276447;55;1138691;-66
2023/08/25 18:20:40;;;;;;;12.40;6.50;;;;;;;27.90;81.69;99973.42;5276720;55;1145919;-66
2023/08/25 18:25:45;;;;;;;15.70;6.40;;;;;;;27.79;82.75;99970.78;5258653;54;1138822;-67
2023/08/25 18:31:06;;;;;;;17.73;6.75;;;;;;;27.75;82.59;99966.90;5212153;54;1139022;-67
2023/08/25 18:36:14;;;;;;;17.87;6.95;;;;;;;27.73;82.64;99967.67;5218512;55;1138632;-67
2023/08/25 18:41:19;;;;;;;14.55;6.87;;;;;;;27.71;82.51;99975.24;5236874;54;1138910;-66
2023/08/25 18:46:27;;;;;;;9.63;5.87;;;;;;;27.66;82.29;99964.56;5189535;55;1138767;-67
2023/08/25 18:51:32;;;;;;;12.75;5.33;;;;;;;27.65;81.92;99979.22;5232493;55;1136573;-66
2023/08/25 18:56:38;;;;;;;7.17;5.72;;;;;;;27.61;81.85;99972.64;5277785;55;1139240;-68
2023/08/25 19:01:44;;;;;;;14.23;6.63;;;;;;;27.58;81.51;99969.05;5037352;57;1137034;-66
2023/08/25 19:06:49;;;;;;;9.58;5.47;;;;;;;27.54;81.28;99966.48;5103915;55;1138743;-66
2023/08/25 19:11:55;;;;;;;15.30;7.95;;;;;;;27.56;81.55;99968.97;5079582;56;1136743;-66
2023/08/25 19:17:18;;;;;;;17.45;8.75;;;;;;;27.63;81.95;99953.38;5127554;56;1138802;-66
2023/08/25 19:22:23;;;;;;;10.78;7.50;;;;;;;27.56;81.92;99926.86;5119216;56;1138800;-66
2023/08/25 19:27:29;;;;;;;14.33;6.30;;;;;;;27.50;81.99;99934.64;5132516;56;1138871;-66
2023/08/25 19:32:35;;;;;;;11.90;6.65;;;;;;;27.48;81.98;99962.58;5073599;56;1138791;-68
2023/08/25 19:37:41;;;;;;;11.80;6.12;;;;;;;27.23;82.37;99968.32;5041000;56;1138907;-66
2023/08/25 19:42:49;;;;;;;9.28;5.87;;;;;;;27.03;82.82;99978.78;5051998;56;1138825;-66
2023/08/25 19:47:55;;;;;;;13.18;6.90;;;;;;;26.73;83.47;99984.34;5103662;55;1136604;-66
2023/08/25 19:53:01;;;;;;;16.48;7.15;;;;;;;26.61;84.39;99987.88;5043550;56;1138957;-66
2023/08/25 19:58:07;;;;;;;16.25;7.05;;;;;;;26.55;85.15;99983.41;5020682;56;1138655;-67
2023/08/25 20:03:13;;;;;;;10.45;6.28;;;;;;;26.70;85.89;99992.42;5093263;56;1138939;-67
2023/08/25 20:08:18;;;;;;;12.88;6.58;;;;;;;26.70;85.39;99999.20;5044016;56;1138506;-66
2023/08/25 20:13:24;;;;;;;16.05;6.60;;;;;;;26.56;85.35;100001.87;5090482;56;1139008;-67
2023/08/25 20:18:30;;;;;;;7.35;6.15;;;;;;;26.45;85.88;100002.67;4969352;57;1140764;-66
2023/08/25 20:23:35;;;;;;;14.27;7.60;;;;;;;26.42;86.62;99993.67;5068029;56;1138834;-66
2023/08/25 20:28:41;;;;;;;15.77;6.50;;;;;;;26.50;87.42;99984.64;5022856;57;1139204;-66
2023/08/25 20:33:47;;;;;;;18.10;5.97;;;;;;;26.55;86.60;100002.92;5088824;56;1138769;-66
2023/08/25 20:38:52;;;;;;;14.98;6.50;;;;;;;26.53;86.60;100009.94;5090768;56;1140832;-66
2023/08/25 20:43:58;;;;;;;9.25;6.03;;;;;;;26.43;86.37;100012.95;5114717;56;1141159;-66
2023/08/25 20:49:04;;;;;;;18.07;7.10;;;;;;;26.12;87.22;100012.17;5085223;55;1138961;-67
2023/08/25 20:54:10;;;;;;;14.15;6.60;;;;;;;26.12;87.22;100012.17;5090304;56;1140898;-67
2023/08/25 20:59:15;;;;;;;11.30;7.37;;;;;;;26.00;87.68;100021.30;5021333;56;1140912;-68
2023/08/25 21:04:21;;;;;;;10.70;6.35;;;;;;;25.94;88.24;100020.37;5044942;56;1141019;-67
2023/08/25 21:09:29;;;;;;;16.07;6.80;;;;;;;25.95;88.41;100019.84;5081319;56;1140775;-68
2023/08/25 21:14:34;;;;;;;12.92;7.40;;;;;;;25.92;88.59;100027.37;5013369;57;1140948;-67
2023/08/25 21:19:39;;;;;;;15.50;7.70;;;;;;;25.83;88.71;100028.73;5020644;56;1140689;-67
2023/08/25 21:24:46;;;;;;;20.53;7.77;;;;;;;25.71;89.22;100027.88;5089149;56;1141131;-67
2023/08/25 21:29:52;;;;;;;13.43;6.85;;;;;;;25.63;89.77;100027.37;5040351;57;1140619;-67
2023/08/25 21:35:00;;;;;;;12.10;7.12;;;;;;;25.53;90.34;100022.45;5275835;55;1140967;-67
2023/08/25 21:40:06;;;;;;;11.05;7.72;;;;;;;25.45;90.96;100020.91;5106275;56;1140816;-67
2023/08/25 21:45:11;;;;;;;9.78;7.05;;;;;;;25.46;91.55;100020.37;5126816;56;1141173;-68
2023/08/25 21:50:17;;;;;;;12.95;6.97;;;;;;;25.42;91.55;100006.98;5050579;56;1138945;-67
2023/08/25 21:55:24;;;;;;;10.53;7.42;;;;;;;25.41;91.46;99990.44;5022392;55;1140917;-67
2023/08/25 22:00:30;;;;;;;11.10;6.92;;;;;;;25.43;91.79;99976.16;5044381;56;1138715;-69
2023/08/25 22:05:38;;;;;;;18.42;6.83;;;;;;;25.49;91.47;99973.37;5022858;57;1138655;-68
2023/08/25 22:10:43;;;;;;;15.40;9.23;;;;;;;25.49;91.48;99958.47;5033836;56;1138660;-67
2023/08/25 22:15:49;;;;;;;14.50;7.20;;;;;;;25.55;91.81;99938.58;5247060;54;1138731;-67
2023/08/25 22:20:58;;;;;;;14.10;6.80;;;;;;;25.63;91.22;99946.13;5149999;56;1138818;-67
2023/08/25 22:26:04;;;;;;;8.88;7.17;;;;;;;25.57;91.47;99920.22;5129797;56;1139180;-67
2023/08/25 22:31:09;;;;;;;10.13;6.42;;;;;;;25.68;91.63;99917.80;5129347;56;1136726;-67
2023/08/25 22:36:15;;;;;;;12.63;6.83;;;;;;;25.67;91.11;99921.56;5143193;56;1138713;-68
2023/08/25 22:41:21;;;;;;;14.35;8.25;;;;;;;25.53;91.02;99921.73;5021670;57;1138651;-67
2023/08/25 22:46:26;;;;;;;13.75;7.70;;;;;;;25.53;91.93;99908.72;5275095;55;1138574;-67
2023/08/25 22:51:32;;;;;;;11.53;6.03;;;;;;;25.48;91.80;99901.84;5186319;55;1138992;-68
2023/08/25 22:56:41;;;;;;;13.80;6.62;;;;;;;25.44;91.92;99897.41;5199324;55;1138866;-67
2023/08/25 23:01:53;;;;;;;8.95;5.90;;;;;;;25.42;92.17;99888.69;5279195;54;1138968;-68
2023/08/25 23:06:54;;;;;;;17.20;7.65;;;;;;;25.36;92.53;99882.03;5299015;55;1136572;-68